Tetovo, Macedonia
Current Conditions -  °F | °C
As of 3:30 AM on Thursday 23 Oct 2014 (Local Time) from LWSK Reporting Station
Light Rain Light Rain  
Wind Chill: 37°   Ceiling: 4000
Heat Index: 43°   Visibility: 6mi
Dew Point: 39°   Wind: 12mph
Humidity: 87%   Direction: 360°N
Pressure: 29.62"   Gusts: NA
Location:  42.01°N, 20.97°E
Report Text: LWSK 230130Z 36010KT 9999 -RA FEW016 OVC040 06/04 Q1003 NOSIG
Loading
Personal Weather Stations






























Interactive Weather Map
Tropical Storm Tracking
New forecast layout! Learn more

10-Day Weather Forecast

Advertisements
Track Severe Weather on mobile